sensor_id;sensor_type;location;lat;lon;timestamp;temperature;humidity
52669;DHT22;76842;52.786;6.892;2024-03-02T00:02:51;7.70;84.90
52669;DHT22;76842;52.786;6.892;2024-03-02T00:06:11;7.60;85.30
52669;DHT22;76842;52.786;6.892;2024-03-02T00:09:32;7.70;84.90
52669;DHT22;76842;52.786;6.892;2024-03-02T00:12:53;7.70;84.90
52669;DHT22;76842;52.786;6.892;2024-03-02T00:16:14;7.70;84.90
52669;DHT22;76842;52.786;6.892;2024-03-02T00:19:38;7.80;84.80
52669;DHT22;76842;52.786;6.892;2024-03-02T00:23:05;7.70;84.90
52669;DHT22;76842;52.786;6.892;2024-03-02T00:26:26;7.80;84.90
52669;DHT22;76842;52.786;6.892;2024-03-02T00:29:47;7.80;84.70
52669;DHT22;76842;52.786;6.892;2024-03-02T00:33:07;7.80;84.90
52669;DHT22;76842;52.786;6.892;2024-03-02T00:36:28;7.80;84.80
52669;DHT22;76842;52.786;6.892;2024-03-02T00:39:49;7.80;84.80
52669;DHT22;76842;52.786;6.892;2024-03-02T00:47:05;7.90;84.80
52669;DHT22;76842;52.786;6.892;2024-03-02T00:50:26;7.90;84.50
52669;DHT22;76842;52.786;6.892;2024-03-02T00:53:47;7.90;84.60
52669;DHT22;76842;52.786;6.892;2024-03-02T00:57:10;7.90;84.70
52669;DHT22;76842;52.786;6.892;2024-03-02T01:00:32;7.90;84.80
52669;DHT22;76842;52.786;6.892;2024-03-02T01:03:53;7.90;85.00
52669;DHT22;76842;52.786;6.892;2024-03-02T01:07:13;7.90;85.10
52669;DHT22;76842;52.786;6.892;2024-03-02T01:10:34;7.90;85.20
52669;DHT22;76842;52.786;6.892;2024-03-02T01:13:54;7.90;85.30
52669;DHT22;76842;52.786;6.892;2024-03-02T01:17:15;7.90;85.20
52669;DHT22;76842;52.786;6.892;2024-03-02T01:20:36;7.90;85.30
52669;DHT22;76842;52.786;6.892;2024-03-02T01:23:56;7.90;85.40
52669;DHT22;76842;52.786;6.892;2024-03-02T01:27:17;8.00;85.30
52669;DHT22;76842;52.786;6.892;2024-03-02T01:30:37;7.90;85.20
52669;DHT22;76842;52.786;6.892;2024-03-02T01:33:58;8.00;85.30
52669;DHT22;76842;52.786;6.892;2024-03-02T01:37:18;8.00;85.20
52669;DHT22;76842;52.786;6.892;2024-03-02T01:40:39;8.00;85.30
52669;DHT22;76842;52.786;6.892;2024-03-02T01:44:00;8.00;85.40
52669;DHT22;76842;52.786;6.892;2024-03-02T01:47:21;8.00;85.30
52669;DHT22;76842;52.786;6.892;2024-03-02T01:50:41;8.00;85.40
52669;DHT22;76842;52.786;6.892;2024-03-02T01:54:02;8.10;85.30
52669;DHT22;76842;52.786;6.892;2024-03-02T01:57:23;8.10;85.40
52669;DHT22;76842;52.786;6.892;2024-03-02T02:00:43;8.10;85.30
52669;DHT22;76842;52.786;6.892;2024-03-02T02:04:05;8.10;85.60
52669;DHT22;76842;52.786;6.892;2024-03-02T02:07:26;8.00;85.60
52669;DHT22;76842;52.786;6.892;2024-03-02T02:10:47;8.00;85.90
52669;DHT22;76842;52.786;6.892;2024-03-02T02:14:07;8.00;85.90
52669;DHT22;76842;52.786;6.892;2024-03-02T02:17:28;8.10;85.70
52669;DHT22;76842;52.786;6.892;2024-03-02T02:20:49;8.10;85.80
52669;DHT22;76842;52.786;6.892;2024-03-02T02:24:10;8.10;86.10
52669;DHT22;76842;52.786;6.892;2024-03-02T02:27:30;8.10;85.90
52669;DHT22;76842;52.786;6.892;2024-03-02T02:30:51;8.10;86.00
52669;DHT22;76842;52.786;6.892;2024-03-02T02:34:11;8.10;86.00
52669;DHT22;76842;52.786;6.892;2024-03-02T02:37:34;8.10;86.00
52669;DHT22;76842;52.786;6.892;2024-03-02T02:40:54;8.10;85.90
52669;DHT22;76842;52.786;6.892;2024-03-02T02:44:15;8.10;86.10
52669;DHT22;76842;52.786;6.892;2024-03-02T02:47:36;8.20;86.00
52669;DHT22;76842;52.786;6.892;2024-03-02T02:50:56;8.10;86.00
52669;DHT22;76842;52.786;6.892;2024-03-02T02:54:17;8.10;86.20
52669;DHT22;76842;52.786;6.892;2024-03-02T02:57:40;8.10;86.10
52669;DHT22;76842;52.786;6.892;2024-03-02T03:01:02;8.10;86.20
52669;DHT22;76842;52.786;6.892;2024-03-02T03:04:22;8.10;86.20
52669;DHT22;76842;52.786;6.892;2024-03-02T03:07:43;8.20;86.00
52669;DHT22;76842;52.786;6.892;2024-03-02T03:11:05;8.20;85.90
52669;DHT22;76842;52.786;6.892;2024-03-02T03:14:25;8.20;85.80
52669;DHT22;76842;52.786;6.892;2024-03-02T03:17:46;8.20;85.60
52669;DHT22;76842;52.786;6.892;2024-03-02T03:21:07;8.20;85.50
52669;DHT22;76842;52.786;6.892;2024-03-02T03:24:28;8.20;85.70
52669;DHT22;76842;52.786;6.892;2024-03-02T03:27:48;8.20;85.80
52669;DHT22;76842;52.786;6.892;2024-03-02T03:31:09;8.20;85.80
52669;DHT22;76842;52.786;6.892;2024-03-02T03:34:34;8.20;85.60
52669;DHT22;76842;52.786;6.892;2024-03-02T03:37:55;8.20;85.60
52669;DHT22;76842;52.786;6.892;2024-03-02T03:41:15;8.20;85.50
52669;DHT22;76842;52.786;6.892;2024-03-02T03:44:36;8.20;85.40
52669;DHT22;76842;52.786;6.892;2024-03-02T03:47:56;8.20;85.20
52669;DHT22;76842;52.786;6.892;2024-03-02T03:51:17;8.20;85.30
52669;DHT22;76842;52.786;6.892;2024-03-02T03:54:38;8.20;85.40
52669;DHT22;76842;52.786;6.892;2024-03-02T03:57:59;8.10;85.50
52669;DHT22;76842;52.786;6.892;2024-03-02T04:01:19;8.10;85.50
52669;DHT22;76842;52.786;6.892;2024-03-02T04:04:42;8.10;85.70
52669;DHT22;76842;52.786;6.892;2024-03-02T04:08:04;8.10;85.70
52669;DHT22;76842;52.786;6.892;2024-03-02T04:11:25;8.00;85.90
52669;DHT22;76842;52.786;6.892;2024-03-02T04:14:45;8.00;85.90
52669;DHT22;76842;52.786;6.892;2024-03-02T04:18:06;7.90;86.50
52669;DHT22;76842;52.786;6.892;2024-03-02T04:21:27;7.90;86.70
52669;DHT22;76842;52.786;6.892;2024-03-02T04:24:47;7.90;87.00
52669;DHT22;76842;52.786;6.892;2024-03-02T04:28:08;7.80;87.20
52669;DHT22;76842;52.786;6.892;2024-03-02T04:31:29;7.80;87.50
52669;DHT22;76842;52.786;6.892;2024-03-02T04:34:49;7.80;88.00
52669;DHT22;76842;52.786;6.892;2024-03-02T04:38:10;7.80;88.00
52669;DHT22;76842;52.786;6.892;2024-03-02T04:41:30;7.70;88.20
52669;DHT22;76842;52.786;6.892;2024-03-02T04:44:51;7.70;88.10
52669;DHT22;76842;52.786;6.892;2024-03-02T04:48:12;7.70;88.20
52669;DHT22;76842;52.786;6.892;2024-03-02T04:51:33;7.70;88.30
52669;DHT22;76842;52.786;6.892;2024-03-02T04:54:54;7.70;88.30
52669;DHT22;76842;52.786;6.892;2024-03-02T04:58:30;7.70;88.20
52669;DHT22;76842;52.786;6.892;2024-03-02T05:01:51;7.70;88.10
52669;DHT22;76842;52.786;6.892;2024-03-02T05:05:12;7.70;88.30
52669;DHT22;76842;52.786;6.892;2024-03-02T05:08:32;7.70;88.20
52669;DHT22;76842;52.786;6.892;2024-03-02T05:11:53;7.70;88.20
52669;DHT22;76842;52.786;6.892;2024-03-02T05:15:30;7.60;88.20
52669;DHT22;76842;52.786;6.892;2024-03-02T05:18:50;7.60;88.10
52669;DHT22;76842;52.786;6.892;2024-03-02T05:22:11;7.60;88.20
52669;DHT22;76842;52.786;6.892;2024-03-02T05:25:31;7.60;88.30
52669;DHT22;76842;52.786;6.892;2024-03-02T05:28:52;7.50;88.40
52669;DHT22;76842;52.786;6.892;2024-03-02T05:32:13;7.50;88.70
52669;DHT22;76842;52.786;6.892;2024-03-02T05:35:34;7.50;89.10
52669;DHT22;76842;52.786;6.892;2024-03-02T05:38:54;7.40;89.20
52669;DHT22;76842;52.786;6.892;2024-03-02T05:42:15;7.40;89.30
52669;DHT22;76842;52.786;6.892;2024-03-02T05:45:37;7.40;89.20
52669;DHT22;76842;52.786;6.892;2024-03-02T05:48:59;7.30;89.40
52669;DHT22;76842;52.786;6.892;2024-03-02T05:52:19;7.30;89.30
52669;DHT22;76842;52.786;6.892;2024-03-02T05:55:41;7.30;89.80
52669;DHT22;76842;52.786;6.892;2024-03-02T05:59:01;7.30;89.40
52669;DHT22;76842;52.786;6.892;2024-03-02T06:02:34;7.30;89.60
52669;DHT22;76842;52.786;6.892;2024-03-02T06:05:55;7.30;89.80
52669;DHT22;76842;52.786;6.892;2024-03-02T06:09:16;7.30;89.90
52669;DHT22;76842;52.786;6.892;2024-03-02T06:12:36;7.20;90.10
52669;DHT22;76842;52.786;6.892;2024-03-02T06:15:57;7.20;90.00
52669;DHT22;76842;52.786;6.892;2024-03-02T06:19:18;7.20;90.10
52669;DHT22;76842;52.786;6.892;2024-03-02T06:22:38;7.10;90.30
52669;DHT22;76842;52.786;6.892;2024-03-02T06:25:59;7.10;90.40
52669;DHT22;76842;52.786;6.892;2024-03-02T06:29:19;7.00;90.50
52669;DHT22;76842;52.786;6.892;2024-03-02T06:32:40;7.00;90.50
52669;DHT22;76842;52.786;6.892;2024-03-02T06:36:01;7.00;90.70
52669;DHT22;76842;52.786;6.892;2024-03-02T06:39:21;7.00;91.00
52669;DHT22;76842;52.786;6.892;2024-03-02T06:42:42;7.00;91.00
52669;DHT22;76842;52.786;6.892;2024-03-02T06:46:03;7.00;90.90
52669;DHT22;76842;52.786;6.892;2024-03-02T06:49:23;7.10;90.90
52669;DHT22;76842;52.786;6.892;2024-03-02T06:52:44;7.10;90.90
52669;DHT22;76842;52.786;6.892;2024-03-02T06:56:05;7.10;90.90
52669;DHT22;76842;52.786;6.892;2024-03-02T06:59:27;7.20;91.00
52669;DHT22;76842;52.786;6.892;2024-03-02T07:02:47;7.20;91.20
52669;DHT22;76842;52.786;6.892;2024-03-02T07:06:08;7.20;91.10
52669;DHT22;76842;52.786;6.892;2024-03-02T07:09:29;7.30;90.90
52669;DHT22;76842;52.786;6.892;2024-03-02T07:12:49;7.30;90.80
52669;DHT22;76842;52.786;6.892;2024-03-02T07:16:10;7.40;90.70
52669;DHT22;76842;52.786;6.892;2024-03-02T07:19:50;7.60;90.70
52669;DHT22;76842;52.786;6.892;2024-03-02T07:23:10;7.60;89.90
52669;DHT22;76842;52.786;6.892;2024-03-02T07:26:31;7.60;89.80
52669;DHT22;76842;52.786;6.892;2024-03-02T07:29:52;7.50;90.10
52669;DHT22;76842;52.786;6.892;2024-03-02T07:33:12;7.50;90.20
52669;DHT22;76842;52.786;6.892;2024-03-02T07:36:33;7.50;90.30
52669;DHT22;76842;52.786;6.892;2024-03-02T07:39:53;7.50;90.60
52669;DHT22;76842;52.786;6.892;2024-03-02T07:43:14;7.50;90.50
52669;DHT22;76842;52.786;6.892;2024-03-02T07:46:35;7.50;90.60
52669;DHT22;76842;52.786;6.892;2024-03-02T07:49:55;7.50;90.70
52669;DHT22;76842;52.786;6.892;2024-03-02T07:53:16;7.50;90.70
52669;DHT22;76842;52.786;6.892;2024-03-02T07:56:36;7.50;90.40
52669;DHT22;76842;52.786;6.892;2024-03-02T07:59:57;7.50;90.30
52669;DHT22;76842;52.786;6.892;2024-03-02T08:03:19;7.50;90.10
52669;DHT22;76842;52.786;6.892;2024-03-02T08:06:40;7.50;90.20
52669;DHT22;76842;52.786;6.892;2024-03-02T08:10:01;7.60;90.10
52669;DHT22;76842;52.786;6.892;2024-03-02T08:13:21;7.60;90.10
52669;DHT22;76842;52.786;6.892;2024-03-02T08:16:42;7.60;90.00
52669;DHT22;76842;52.786;6.892;2024-03-02T08:20:03;7.70;90.10
52669;DHT22;76842;52.786;6.892;2024-03-02T08:23:23;7.70;90.10
52669;DHT22;76842;52.786;6.892;2024-03-02T08:26:44;7.80;90.30
52669;DHT22;76842;52.786;6.892;2024-03-02T08:30:05;7.80;90.40
52669;DHT22;76842;52.786;6.892;2024-03-02T08:33:27;7.80;90.10
52669;DHT22;76842;52.786;6.892;2024-03-02T08:36:47;7.80;90.20
52669;DHT22;76842;52.786;6.892;2024-03-02T08:40:08;7.80;91.00
52669;DHT22;76842;52.786;6.892;2024-03-02T08:43:29;8.00;90.60
52669;DHT22;76842;52.786;6.892;2024-03-02T08:46:50;8.30;90.20
52669;DHT22;76842;52.786;6.892;2024-03-02T08:50:10;8.50;89.20
52669;DHT22;76842;52.786;6.892;2024-03-02T08:53:31;8.80;88.50
52669;DHT22;76842;52.786;6.892;2024-03-02T08:56:52;9.20;87.40
52669;DHT22;76842;52.786;6.892;2024-03-02T09:00:12;9.60;86.00
52669;DHT22;76842;52.786;6.892;2024-03-02T09:03:33;10.00;84.40
52669;DHT22;76842;52.786;6.892;2024-03-02T09:06:55;10.20;83.20
52669;DHT22;76842;52.786;6.892;2024-03-02T09:10:15;10.40;82.20
52669;DHT22;76842;52.786;6.892;2024-03-02T09:13:36;10.40;82.10
52669;DHT22;76842;52.786;6.892;2024-03-02T09:16:57;10.40;81.90
52669;DHT22;76842;52.786;6.892;2024-03-02T09:20:18;10.30;81.80
52669;DHT22;76842;52.786;6.892;2024-03-02T09:23:39;10.30;81.50
52669;DHT22;76842;52.786;6.892;2024-03-02T09:27:00;10.30;81.50
52669;DHT22;76842;52.786;6.892;2024-03-02T09:30:21;10.40;81.40
52669;DHT22;76842;52.786;6.892;2024-03-02T09:33:41;10.90;81.30
52669;DHT22;76842;52.786;6.892;2024-03-02T09:37:02;11.10;79.90
52669;DHT22;76842;52.786;6.892;2024-03-02T09:40:24;11.30;78.60
52669;DHT22;76842;52.786;6.892;2024-03-02T09:43:45;11.20;78.30
52669;DHT22;76842;52.786;6.892;2024-03-02T09:47:07;11.20;78.80
52669;DHT22;76842;52.786;6.892;2024-03-02T09:50:27;11.40;77.40
52669;DHT22;76842;52.786;6.892;2024-03-02T09:53:48;11.60;77.00
52669;DHT22;76842;52.786;6.892;2024-03-02T09:57:09;11.70;76.00
52669;DHT22;76842;52.786;6.892;2024-03-02T10:00:30;11.60;76.30
52669;DHT22;76842;52.786;6.892;2024-03-02T10:03:51;11.50;75.80
52669;DHT22;76842;52.786;6.892;2024-03-02T10:07:16;11.70;75.60
52669;DHT22;76842;52.786;6.892;2024-03-02T10:10:39;11.90;74.30
52669;DHT22;76842;52.786;6.892;2024-03-02T10:14:11;12.00;74.00
52669;DHT22;76842;52.786;6.892;2024-03-02T10:17:32;12.00;73.40
52669;DHT22;76842;52.786;6.892;2024-03-02T10:20:53;12.20;73.60
52669;DHT22;76842;52.786;6.892;2024-03-02T10:24:14;12.50;72.60
52669;DHT22;76842;52.786;6.892;2024-03-02T10:27:34;12.70;72.20
52669;DHT22;76842;52.786;6.892;2024-03-02T10:30:55;12.90;71.90
52669;DHT22;76842;52.786;6.892;2024-03-02T10:34:15;12.90;70.50
52669;DHT22;76842;52.786;6.892;2024-03-02T10:37:36;13.00;70.60
52669;DHT22;76842;52.786;6.892;2024-03-02T10:40:58;13.20;70.40
52669;DHT22;76842;52.786;6.892;2024-03-02T10:44:20;13.20;68.80
52669;DHT22;76842;52.786;6.892;2024-03-02T10:47:47;13.20;69.40
52669;DHT22;76842;52.786;6.892;2024-03-02T10:51:07;13.40;68.70
52669;DHT22;76842;52.786;6.892;2024-03-02T10:54:28;13.40;68.10
52669;DHT22;76842;52.786;6.892;2024-03-02T10:57:59;13.50;68.00
52669;DHT22;76842;52.786;6.892;2024-03-02T11:01:23;13.40;66.90
52669;DHT22;76842;52.786;6.892;2024-03-02T11:04:46;13.40;67.00
52669;DHT22;76842;52.786;6.892;2024-03-02T11:08:13;13.10;67.30
52669;DHT22;76842;52.786;6.892;2024-03-02T11:11:37;13.10;67.30
52669;DHT22;76842;52.786;6.892;2024-03-02T11:15:00;13.10;67.40
52669;DHT22;76842;52.786;6.892;2024-03-02T11:18:21;13.00;67.60
52669;DHT22;76842;52.786;6.892;2024-03-02T11:21:42;13.10;68.30
52669;DHT22;76842;52.786;6.892;2024-03-02T11:25:04;13.30;67.40
52669;DHT22;76842;52.786;6.892;2024-03-02T11:28:35;13.40;67.80
52669;DHT22;76842;52.786;6.892;2024-03-02T11:31:58;13.50;67.40
52669;DHT22;76842;52.786;6.892;2024-03-02T11:35:20;13.50;67.20
52669;DHT22;76842;52.786;6.892;2024-03-02T11:38:43;13.60;67.40
52669;DHT22;76842;52.786;6.892;2024-03-02T11:42:09;13.70;67.10
52669;DHT22;76842;52.786;6.892;2024-03-02T11:45:31;13.50;67.00
52669;DHT22;76842;52.786;6.892;2024-03-02T11:48:53;13.50;67.90
52669;DHT22;76842;52.786;6.892;2024-03-02T11:52:15;13.70;67.50
52669;DHT22;76842;52.786;6.892;2024-03-02T11:55:37;13.60;67.40
52669;DHT22;76842;52.786;6.892;2024-03-02T11:58:57;13.60;64.70
52669;DHT22;76842;52.786;6.892;2024-03-02T12:02:21;13.60;64.90
52669;DHT22;76842;52.786;6.892;2024-03-02T12:05:42;13.70;65.60
52669;DHT22;76842;52.786;6.892;2024-03-02T12:09:03;13.90;64.40
52669;DHT22;76842;52.786;6.892;2024-03-02T12:12:24;14.00;63.00
52669;DHT22;76842;52.786;6.892;2024-03-02T12:15:45;13.90;63.20
52669;DHT22;76842;52.786;6.892;2024-03-02T12:19:06;13.90;63.40
52669;DHT22;76842;52.786;6.892;2024-03-02T12:22:26;14.00;62.80
52669;DHT22;76842;52.786;6.892;2024-03-02T12:25:47;14.20;61.60
52669;DHT22;76842;52.786;6.892;2024-03-02T12:29:08;14.30;61.00
52669;DHT22;76842;52.786;6.892;2024-03-02T12:32:28;14.20;59.80
52669;DHT22;76842;52.786;6.892;2024-03-02T12:35:49;14.00;59.00
52669;DHT22;76842;52.786;6.892;2024-03-02T12:39:10;14.00;59.30
52669;DHT22;76842;52.786;6.892;2024-03-02T12:42:31;14.00;58.80
52669;DHT22;76842;52.786;6.892;2024-03-02T12:45:53;14.00;58.60
52669;DHT22;76842;52.786;6.892;2024-03-02T12:49:16;14.00;58.20
52669;DHT22;76842;52.786;6.892;2024-03-02T12:52:37;14.10;58.10
52669;DHT22;76842;52.786;6.892;2024-03-02T12:55:58;14.20;57.90
52669;DHT22;76842;52.786;6.892;2024-03-02T12:59:20;14.20;57.90
52669;DHT22;76842;52.786;6.892;2024-03-02T13:02:42;14.30;55.80
52669;DHT22;76842;52.786;6.892;2024-03-02T13:06:04;14.40;55.00
52669;DHT22;76842;52.786;6.892;2024-03-02T13:09:25;14.30;53.70
52669;DHT22;76842;52.786;6.892;2024-03-02T13:12:46;14.50;55.00
52669;DHT22;76842;52.786;6.892;2024-03-02T13:16:09;14.60;54.90
52669;DHT22;76842;52.786;6.892;2024-03-02T13:19:31;14.70;53.60
52669;DHT22;76842;52.786;6.892;2024-03-02T13:22:52;14.70;53.40
52669;DHT22;76842;52.786;6.892;2024-03-02T13:26:13;14.50;52.50
52669;DHT22;76842;52.786;6.892;2024-03-02T13:29:34;14.50;53.30
52669;DHT22;76842;52.786;6.892;2024-03-02T13:32:54;14.60;53.70
52669;DHT22;76842;52.786;6.892;2024-03-02T13:36:15;14.50;53.00
52669;DHT22;76842;52.786;6.892;2024-03-02T13:39:36;14.30;53.30
52669;DHT22;76842;52.786;6.892;2024-03-02T13:43:03;14.30;53.80
52669;DHT22;76842;52.786;6.892;2024-03-02T13:46:23;14.30;54.60
52669;DHT22;76842;52.786;6.892;2024-03-02T13:49:44;14.40;54.40
52669;DHT22;76842;52.786;6.892;2024-03-02T13:53:06;14.40;54.00
52669;DHT22;76842;52.786;6.892;2024-03-02T13:56:28;14.20;54.80
52669;DHT22;76842;52.786;6.892;2024-03-02T13:59:49;14.20;55.40
52669;DHT22;76842;52.786;6.892;2024-03-02T14:03:09;14.20;55.60
52669;DHT22;76842;52.786;6.892;2024-03-02T14:06:30;14.20;55.80
52669;DHT22;76842;52.786;6.892;2024-03-02T14:09:50;14.20;55.90
52669;DHT22;76842;52.786;6.892;2024-03-02T14:13:11;14.10;56.40
52669;DHT22;76842;52.786;6.892;2024-03-02T14:16:31;14.10;57.10
52669;DHT22;76842;52.786;6.892;2024-03-02T14:19:52;14.00;57.60
52669;DHT22;76842;52.786;6.892;2024-03-02T14:23:14;14.00;58.00
52669;DHT22;76842;52.786;6.892;2024-03-02T14:26:35;14.00;57.90
52669;DHT22;76842;52.786;6.892;2024-03-02T14:29:56;13.90;58.00
52669;DHT22;76842;52.786;6.892;2024-03-02T14:33:17;13.80;58.60
52669;DHT22;76842;52.786;6.892;2024-03-02T14:36:38;13.80;58.80
52669;DHT22;76842;52.786;6.892;2024-03-02T14:39:59;13.80;58.80
52669;DHT22;76842;52.786;6.892;2024-03-02T14:43:19;13.80;58.90
52669;DHT22;76842;52.786;6.892;2024-03-02T14:46:40;13.90;59.20
52669;DHT22;76842;52.786;6.892;2024-03-02T14:50:01;13.90;59.40
52669;DHT22;76842;52.786;6.892;2024-03-02T14:53:29;13.90;59.30
52669;DHT22;76842;52.786;6.892;2024-03-02T14:56:49;13.90;59.20
52669;DHT22;76842;52.786;6.892;2024-03-02T15:00:11;13.90;59.10
52669;DHT22;76842;52.786;6.892;2024-03-02T15:03:32;14.00;59.50
52669;DHT22;76842;52.786;6.892;2024-03-02T15:06:53;14.10;59.70
52669;DHT22;76842;52.786;6.892;2024-03-02T15:10:13;14.20;58.80
52669;DHT22;76842;52.786;6.892;2024-03-02T15:13:34;14.30;58.60
52669;DHT22;76842;52.786;6.892;2024-03-02T15:16:55;14.40;58.30
52669;DHT22;76842;52.786;6.892;2024-03-02T15:20:16;14.50;57.60
52669;DHT22;76842;52.786;6.892;2024-03-02T15:23:37;14.50;57.60
52669;DHT22;76842;52.786;6.892;2024-03-02T15:26:58;14.50;57.30
52669;DHT22;76842;52.786;6.892;2024-03-02T15:30:18;14.50;57.30
52669;DHT22;76842;52.786;6.892;2024-03-02T15:33:39;14.50;57.60
52669;DHT22;76842;52.786;6.892;2024-03-02T15:36:59;14.50;57.70
52669;DHT22;76842;52.786;6.892;2024-03-02T15:40:21;14.60;57.80
52669;DHT22;76842;52.786;6.892;2024-03-02T15:43:41;14.60;58.10
52669;DHT22;76842;52.786;6.892;2024-03-02T15:47:03;14.70;57.70
52669;DHT22;76842;52.786;6.892;2024-03-02T15:50:24;14.70;57.70
52669;DHT22;76842;52.786;6.892;2024-03-02T15:53:44;14.70;57.40
52669;DHT22;76842;52.786;6.892;2024-03-02T15:57:05;14.70;57.90
52669;DHT22;76842;52.786;6.892;2024-03-02T16:00:26;14.70;57.60
52669;DHT22;76842;52.786;6.892;2024-03-02T16:03:46;14.60;57.90
52669;DHT22;76842;52.786;6.892;2024-03-02T16:07:07;14.50;58.50
52669;DHT22;76842;52.786;6.892;2024-03-02T16:10:28;14.40;59.10
52669;DHT22;76842;52.786;6.892;2024-03-02T16:13:48;14.30;59.60
52669;DHT22;76842;52.786;6.892;2024-03-02T16:17:09;14.20;60.00
52669;DHT22;76842;52.786;6.892;2024-03-02T16:20:30;14.10;60.50
52669;DHT22;76842;52.786;6.892;2024-03-02T16:23:50;14.10;60.90
52669;DHT22;76842;52.786;6.892;2024-03-02T16:27:11;14.10;61.10
52669;DHT22;76842;52.786;6.892;2024-03-02T16:30:32;14.10;61.20
52669;DHT22;76842;52.786;6.892;2024-03-02T16:33:53;14.00;61.70
52669;DHT22;76842;52.786;6.892;2024-03-02T16:37:13;14.00;61.90
52669;DHT22;76842;52.786;6.892;2024-03-02T16:40:34;14.10;61.80
52669;DHT22;76842;52.786;6.892;2024-03-02T16:43:54;14.30;61.60
52669;DHT22;76842;52.786;6.892;2024-03-02T16:47:15;14.40;61.10
52669;DHT22;76842;52.786;6.892;2024-03-02T16:50:36;14.40;61.10
52669;DHT22;76842;52.786;6.892;2024-03-02T16:53:56;14.40;60.90
52669;DHT22;76842;52.786;6.892;2024-03-02T16:57:17;14.30;60.70
52669;DHT22;76842;52.786;6.892;2024-03-02T17:00:38;14.20;61.00
52669;DHT22;76842;52.786;6.892;2024-03-02T17:03:59;14.00;61.60
52669;DHT22;76842;52.786;6.892;2024-03-02T17:07:19;13.80;61.90
52669;DHT22;76842;52.786;6.892;2024-03-02T17:10:40;13.70;62.50
52669;DHT22;76842;52.786;6.892;2024-03-02T17:14:00;13.60;62.90
52669;DHT22;76842;52.786;6.892;2024-03-02T17:17:23;13.50;63.20
52669;DHT22;76842;52.786;6.892;2024-03-02T17:20:44;13.40;63.60
52669;DHT22;76842;52.786;6.892;2024-03-02T17:24:04;13.30;64.00
52669;DHT22;76842;52.786;6.892;2024-03-02T17:27:25;13.20;64.40
52669;DHT22;76842;52.786;6.892;2024-03-02T17:30:47;13.20;64.80
52669;DHT22;76842;52.786;6.892;2024-03-02T17:34:07;13.10;65.10
52669;DHT22;76842;52.786;6.892;2024-03-02T17:37:28;13.10;65.40
52669;DHT22;76842;52.786;6.892;2024-03-02T17:40:49;13.00;65.90
52669;DHT22;76842;52.786;6.892;2024-03-02T17:44:09;12.90;66.10
52669;DHT22;76842;52.786;6.892;2024-03-02T17:47:30;12.80;66.40
52669;DHT22;76842;52.786;6.892;2024-03-02T17:50:51;12.80;66.80
52669;DHT22;76842;52.786;6.892;2024-03-02T17:54:12;12.70;67.10
52669;DHT22;76842;52.786;6.892;2024-03-02T17:57:32;12.60;67.50
52669;DHT22;76842;52.786;6.892;2024-03-02T18:00:53;12.60;67.80
52669;DHT22;76842;52.786;6.892;2024-03-02T18:04:13;12.50;67.90
52669;DHT22;76842;52.786;6.892;2024-03-02T18:07:35;12.40;68.40
52669;DHT22;76842;52.786;6.892;2024-03-02T18:10:56;12.40;68.60
52669;DHT22;76842;52.786;6.892;2024-03-02T18:14:17;12.40;69.00
52669;DHT22;76842;52.786;6.892;2024-03-02T18:17:38;12.30;69.30
52669;DHT22;76842;52.786;6.892;2024-03-02T18:20:58;12.30;69.70
52669;DHT22;76842;52.786;6.892;2024-03-02T18:24:19;12.20;70.00
52669;DHT22;76842;52.786;6.892;2024-03-02T18:27:43;12.20;70.40
52669;DHT22;76842;52.786;6.892;2024-03-02T18:31:05;12.20;70.60
52669;DHT22;76842;52.786;6.892;2024-03-02T18:34:25;12.10;71.00
52669;DHT22;76842;52.786;6.892;2024-03-02T18:37:46;12.10;71.40
52669;DHT22;76842;52.786;6.892;2024-03-02T18:41:07;12.00;71.50
52669;DHT22;76842;52.786;6.892;2024-03-02T18:44:27;12.00;72.00
52669;DHT22;76842;52.786;6.892;2024-03-02T18:47:48;11.90;72.30
52669;DHT22;76842;52.786;6.892;2024-03-02T18:51:08;11.90;72.70
52669;DHT22;76842;52.786;6.892;2024-03-02T18:54:29;11.90;72.60
52669;DHT22;76842;52.786;6.892;2024-03-02T18:57:50;11.80;72.90
52669;DHT22;76842;52.786;6.892;2024-03-02T19:01:10;11.80;73.20
52669;DHT22;76842;52.786;6.892;2024-03-02T19:04:31;11.70;73.50
52669;DHT22;76842;52.786;6.892;2024-03-02T19:07:52;11.70;73.90
52669;DHT22;76842;52.786;6.892;2024-03-02T19:11:16;11.70;74.20
52669;DHT22;76842;52.786;6.892;2024-03-02T19:14:37;11.60;74.70
52669;DHT22;76842;52.786;6.892;2024-03-02T19:17:58;11.60;75.00
52669;DHT22;76842;52.786;6.892;2024-03-02T19:21:18;11.50;75.40
52669;DHT22;76842;52.786;6.892;2024-03-02T19:24:39;11.50;75.50
52669;DHT22;76842;52.786;6.892;2024-03-02T19:28:01;11.50;75.70
52669;DHT22;76842;52.786;6.892;2024-03-02T19:31:21;11.50;75.70
52669;DHT22;76842;52.786;6.892;2024-03-02T19:34:42;11.50;75.50
52669;DHT22;76842;52.786;6.892;2024-03-02T19:38:02;11.50;75.50
52669;DHT22;76842;52.786;6.892;2024-03-02T19:41:23;11.50;75.60
52669;DHT22;76842;52.786;6.892;2024-03-02T19:44:44;11.50;75.70
52669;DHT22;76842;52.786;6.892;2024-03-02T19:48:05;11.50;75.80
52669;DHT22;76842;52.786;6.892;2024-03-02T19:51:25;11.40;75.80
52669;DHT22;76842;52.786;6.892;2024-03-02T19:54:46;11.40;75.90
52669;DHT22;76842;52.786;6.892;2024-03-02T19:58:07;11.40;76.20
52669;DHT22;76842;52.786;6.892;2024-03-02T20:01:28;11.40;76.30
52669;DHT22;76842;52.786;6.892;2024-03-02T20:04:49;11.30;76.30
52669;DHT22;76842;52.786;6.892;2024-03-02T20:08:09;11.30;76.40
52669;DHT22;76842;52.786;6.892;2024-03-02T20:11:31;11.30;76.30
52669;DHT22;76842;52.786;6.892;2024-03-02T20:14:52;11.20;76.30
52669;DHT22;76842;52.786;6.892;2024-03-02T20:18:12;11.20;76.20
52669;DHT22;76842;52.786;6.892;2024-03-02T20:21:33;11.20;76.20
52669;DHT22;76842;52.786;6.892;2024-03-02T20:24:54;11.20;76.00
52669;DHT22;76842;52.786;6.892;2024-03-02T20:28:14;11.20;76.00
52669;DHT22;76842;52.786;6.892;2024-03-02T20:31:37;11.20;75.90
52669;DHT22;76842;52.786;6.892;2024-03-02T20:34:58;11.20;75.70
52669;DHT22;76842;52.786;6.892;2024-03-02T20:38:19;11.20;75.80
52669;DHT22;76842;52.786;6.892;2024-03-02T20:41:39;11.20;75.80
52669;DHT22;76842;52.786;6.892;2024-03-02T20:45:00;11.20;75.60
52669;DHT22;76842;52.786;6.892;2024-03-02T20:48:20;11.20;75.30
52669;DHT22;76842;52.786;6.892;2024-03-02T20:51:41;11.20;75.10
52669;DHT22;76842;52.786;6.892;2024-03-02T20:55:01;11.20;74.90
52669;DHT22;76842;52.786;6.892;2024-03-02T20:58:22;11.30;74.80
52669;DHT22;76842;52.786;6.892;2024-03-02T21:01:46;11.30;74.60
52669;DHT22;76842;52.786;6.892;2024-03-02T21:05:07;11.30;74.50
52669;DHT22;76842;52.786;6.892;2024-03-02T21:08:27;11.20;74.50
52669;DHT22;76842;52.786;6.892;2024-03-02T21:11:48;11.20;74.50
52669;DHT22;76842;52.786;6.892;2024-03-02T21:15:09;11.20;74.50
52669;DHT22;76842;52.786;6.892;2024-03-02T21:18:30;11.10;74.60
52669;DHT22;76842;52.786;6.892;2024-03-02T21:21:51;11.10;74.90
52669;DHT22;76842;52.786;6.892;2024-03-02T21:25:12;11.00;75.20